Terminal Aerodrome Forecast
Issued by NWS Grand Forks, ND

Home | Current Version | Previous Version | Text Only | Print | Product List | Glossary On
Versions: 1 2 3 4 5 6 7 8 9 10 11 12 13 14 15 16 17
103
FTUS43 KFGF 241733
TAFGFK
TAF
KGFK 241733Z 2418/2518 32017KT P6SM -SHRA OVC025
      TEMPO 2418/2420 4SM -SHRA BR OVC012
     FM242000 32017KT P6SM -SHRA OVC018
      TEMPO 2420/2424 3SM -DZ BR OVC010
     FM250000 33017KT P6SM VCSH BKN035
     FM250300 32012KT P6SM BKN060
     FM250700 32010KT P6SM SCT110=

USA.gov is the U.S. government's official web portal to all federal, state and local government web resources and services.